首页
METAR-TAF:

METAR-TAF

机场 :

普尔曼-莫斯科区域机场

普尔曼 / 莫斯科, 华盛顿, 美国

纬度: 46-44-38N, 经度: 117-06-35W, 海拔: 779米

当前天气观测

该预报发布于43分钟前的08:08 UTC
静风
温度 -2°C
湿度 100%
气压 1011 hPa
能見度: 1.2公里
阴天层高于200英尺
轻雾

METAR: KPUW 170808Z AUTO 00000KT 3/4SM BR OVC002 M02/M02 A2984 RMK AO2 T10221022

时间: 00:51 (08:51 UTC)

预报

该预报发布于1小时和53分钟前的06:58 UTC
预报有效从17日的 07点(UTC)到 18日的 06点(UTC)
风速3节,风向西转西北
能見度: 4.8公里
阴天层高于300英尺
轻雾, 附近有阵雨
短暂存在
从 17日的 07点(UTC)到 17日的 09点(UTC)
能見度: 0.8公里
阴天层高于100英尺
冻雾
从 17日的 0900点(UTC)
风速3节,风向多变
能見度: 3.2公里
阴天层高于300英尺
小雪, 轻雾
从 17日的 1500点(UTC)
风速2节,风向多变
能見度: 1.6公里
阴天层高于400英尺
小雪, 轻雾
从 17日的 1900点(UTC)
风速5节,风向西转西北
能見度: 1.6公里
阴天层高于200英尺
小雪, 轻雾
从 18日的 0100点(UTC)
风速8节,风向西北
能見度: 4.8公里
阴天层高于400英尺
小阵雪, 轻雾

TAF: KPUW 170658Z 1707/1806 30003KT 3SM BR VCSH OVC003 TEMPO 1707/1709 1/2SM FZFG OVC001 FM170900 VRB03KT 2SM -SN BR OVC003 FM171500 VRB02KT 1SM -SN BR OVC004 FM171900 29005KT 1SM -SN BR OVC002 FM180100 32008KT 3SM -SHSN BR OVC004

超过4000个机场的气象观测和天气预报(METAR&TAF报告)。

可查询的气象台以黄色和红色小点在地图上表示。

将鼠标移到小点上方,可查看气象台名称。

然后点击查看天气观测和预报。

如需切换地图:点击带黑十字的绿色按钮放大地图;点击带横线的绿色按钮缩小地图;或者点击绿色箭头查看邻近地区的地图。


METAR-TAF: